Astoeingen — LG8191 — position and weather

sailwx.info

Track history (hours):
 
Tides and Currents Weather Stations Pressure Air Temp Water Temp Dewpoint Dewpoint Depression Visibility Wind Speed Wind Dir Waves Ship Positions

Astoeingen

Last reported at 2017-Oct-18 18:30 UTC. Time now 2017-Oct-18 18:37 UTC.
Position N 68°47' E 016°33'.

Length 14 m.

Type: Other ship. MMSI: 257634800.

Date/timePositionNaut miles runAvg speedWind from/ knotsBaromVisibWave heightAir tempDewpointWater temp
2017-Oct-18 18:30N 68°47' E 016°33'3 5.6
2017-Oct-18 18:00N 68°50' E 016°37'5 9.2
2017-Oct-18 17:30N 68°54' E 016°44'5 9.4
2017-Oct-18 17:00N 68°54' E 016°57'4 8.2
2017-Oct-18 16:30N 68°55' E 017°08'0 0.2
2017-Oct-18 16:00N 68°56' E 017°07'0 0.0
2017-Oct-18 15:30N 68°55' E 017°07'0 0.8
2017-Oct-18 15:00N 68°56' E 017°06'9 9.3
2017-Oct-18 14:00N 68°46' E 017°13'4 8.2
2017-Oct-18 13:30N 68°43' E 017°20'4 6.8
2017-Oct-18 12:59N 68°46' E 017°15'4 7.1
2017-Oct-18 12:30N 68°49' E 017°21'0 0.0
2017-Oct-18 11:59N 68°49' E 017°21'0 0.0
2017-Oct-18 11:30N 68°49' E 017°21'0 0.0
2017-Oct-18 11:00N 68°49' E 017°21'0 0.0
2017-Oct-18 10:30N 68°49' E 017°21'0 0.0
2017-Oct-18 10:00N 68°49' E 017°21'0 0.0
2017-Oct-18 09:30N 68°49' E 017°21'0 0.0
2017-Oct-18 09:00N 68°49' E 017°21'0 0.0
2017-Oct-18 08:30N 68°49' E 017°21'0 0.0
2017-Oct-18 08:00N 68°49' E 017°21'0 0.0
2017-Oct-18 07:30N 68°49' E 017°21'1 2.9
2017-Oct-18 07:00N 68°50' E 017°24'3 6.1
2017-Oct-18 06:30N 68°48' E 017°18'4 7.8
2017-Oct-18 05:59N 68°50' E 017°08'5 9.5
2017-Oct-18 05:30N 68°54' E 017°05'1 2.5
2017-Oct-18 05:00N 68°55' E 017°07'0 0.0
2017-Oct-18 04:30N 68°55' E 017°07'0 0.0
2017-Oct-18 04:00N 68°55' E 017°07'0 0.0
2017-Oct-18 03:30N 68°55' E 017°07'0 0.0
2017-Oct-18 02:59N 68°55' E 017°07'0 0.0
2017-Oct-18 02:30N 68°55' E 017°07'0 0.0
2017-Oct-18 02:00N 68°55' E 017°07'0 0.0
2017-Oct-18 01:30N 68°55' E 017°07'0 0.0
2017-Oct-18 01:00N 68°55' E 017°07'0 0.0
2017-Oct-18 00:30N 68°55' E 017°07'0 0.0
2017-Oct-18 00:00N 68°55' E 017°07'0 0.0
2017-Oct-17 23:30N 68°55' E 017°07'0 0.0
2017-Oct-17 23:00N 68°55' E 017°07'0 0.0
2017-Oct-17 22:30N 68°55' E 017°07'0 0.0
2017-Oct-17 22:00N 68°55' E 017°07'0 0.0
2017-Oct-17 21:30N 68°55' E 017°07'0 0.0
2017-Oct-17 21:00N 68°55' E 017°07'0 0.0
2017-Oct-17 20:30N 68°55' E 017°07'0 0.0
2017-Oct-17 20:00N 68°55' E 017°07'0 0.0
2017-Oct-17 19:30N 68°55' E 017°07'0 0.0
2017-Oct-17 19:00N 68°55' E 017°07'0 0.0
2017-Oct-17 18:30N 68°55' E 017°07'0 0.0
2017-Oct-17 18:00N 68°55' E 017°07'0 0.0
2017-Oct-17 17:30N 68°55' E 017°07'0 0.7
2017-Oct-17 17:00N 68°56' E 017°08'5 9.3
2017-Oct-17 16:30N 68°56' E 017°21'5 9.2
2017-Oct-17 16:00N 68°53' E 017°30'5 9.3
2017-Oct-17 15:30N 68°49' E 017°21'0 0.4
2017-Oct-17 15:00N 68°49' E 017°21'2 3.2
2017-Oct-17 14:30N 68°48' E 017°18'3 2.5
2017-Oct-17 13:30N 68°48' E 017°11'1 2.7
2017-Oct-17 13:00N 68°49' E 017°09'1 2.8
2017-Oct-17 12:29N 68°50' E 017°06'1 2.8
2017-Oct-17 12:00N 68°52' E 017°04'1 2.5
2017-Oct-17 11:30N 68°53' E 017°02'1 2.6
2017-Oct-17 11:00N 68°52' E 016°59'2 3.6
2017-Oct-17 10:30N 68°50' E 016°57'2 3.5
2017-Oct-17 10:00N 68°49' E 016°55'1 2.9
2017-Oct-17 09:30N 68°47' E 016°55'0 0.6
2017-Oct-17 09:00N 68°48' E 016°55'0 0.3
2017-Oct-17 08:30N 68°48' E 016°55'0 0.0
2017-Oct-17 08:00N 68°48' E 016°55'0 0.0
2017-Oct-17 07:30N 68°48' E 016°55'0 0.3
2017-Oct-17 07:00N 68°48' E 016°55'0 0.0
2017-Oct-17 06:30N 68°48' E 016°55'4 7.5
2017-Oct-17 06:00N 68°51' E 016°58'5 9.0
2017-Oct-17 05:30N 68°55' E 017°05'1 2.3
2017-Oct-17 05:00N 68°55' E 017°07'0 0.0
2017-Oct-17 04:30N 68°55' E 017°07'0 0.0
2017-Oct-17 04:00N 68°55' E 017°07'0 0.0
2017-Oct-17 03:30N 68°55' E 017°07'0 0.0
2017-Oct-17 03:00N 68°55' E 017°07'0 0.0
2017-Oct-17 02:30N 68°55' E 017°07'0 0.0
2017-Oct-17 02:00N 68°55' E 017°07'0 0.0
2017-Oct-17 01:30N 68°55' E 017°07'0 0.0
2017-Oct-17 01:00N 68°55' E 017°07'0 0.0
2017-Oct-17 00:30N 68°55' E 017°07'0 0.0
2017-Oct-17 00:00N 68°55' E 017°07'0 0.0
2017-Oct-16 23:30N 68°55' E 017°07'0 0.0
2017-Oct-16 23:00N 68°55' E 017°07'0 0.0
2017-Oct-16 22:30N 68°55' E 017°07'0 0.0
2017-Oct-16 22:00N 68°55' E 017°07'0 0.0
2017-Oct-16 21:30N 68°55' E 017°07'0 0.0
2017-Oct-16 21:00N 68°55' E 017°07'0 0.0
2017-Oct-16 20:29N 68°55' E 017°07'0 0.0
2017-Oct-16 20:00N 68°55' E 017°07'0 0.0
2017-Oct-16 19:30N 68°55' E 017°07'0 0.0
2017-Oct-16 19:00N 68°55' E 017°07'0 0.0
2017-Oct-16 18:30N 68°55' E 017°07'0 0.0
2017-Oct-16 18:00N 68°55' E 017°07'0 0.0
2017-Oct-16 17:30N 68°55' E 017°07'0 0.0
2017-Oct-16 17:00N 68°55' E 017°07'0 0.0
2017-Oct-16 16:30N 68°55' E 017°07'0 0.0
2017-Oct-16 16:00N 68°55' E 017°07'0 0.0
2017-Oct-16 15:30N 68°55' E 017°07'0 0.0
2017-Oct-16 15:00N 68°55' E 017°07'0 0.0
2017-Oct-16 14:00N 68°55' E 017°07'0 0.0
2017-Oct-16 13:30N 68°55' E 017°07'0 0.0
2017-Oct-16 13:00N 68°55' E 017°07'0 0.0
2017-Oct-16 12:30N 68°55' E 017°07'1 1.2
2017-Oct-16 12:00N 68°55' E 017°09'0 0.4
2017-Oct-16 11:30N 68°56' E 017°09'0 0.0
2017-Oct-16 11:00N 68°56' E 017°09'0 0.0
2017-Oct-16 10:30N 68°56' E 017°09'0 0.3
2017-Oct-16 10:00N 68°55' E 017°09'0 0.0
2017-Oct-16 09:30N 68°55' E 017°09'0 0.0
2017-Oct-16 09:00N 68°55' E 017°09'0 0.4
2017-Oct-16 08:30N 68°56' E 017°09'0 0.2
2017-Oct-16 08:00N 68°55' E 017°09'0 0.2
2017-Oct-16 07:30N 68°55' E 017°09'0 0.1
2017-Oct-16 07:00N 68°55' E 017°09'0 0.9
2017-Oct-16 06:30N 68°55' E 017°07'0 0.0
2017-Oct-16 06:00N 68°55' E 017°07'0 0.0
2017-Oct-16 05:30N 68°55' E 017°07'0 0.0
2017-Oct-16 05:00N 68°55' E 017°07'0 0.0
2017-Oct-16 04:30N 68°55' E 017°07'0 0.0
2017-Oct-16 03:59N 68°55' E 017°07'0 0.0
2017-Oct-16 03:30N 68°55' E 017°07'0 0.0
2017-Oct-16 03:00N 68°55' E 017°07'0 0.0
2017-Oct-16 02:30N 68°55' E 017°07'0 0.0
2017-Oct-16 02:00N 68°55' E 017°07'0 0.0
2017-Oct-16 01:30N 68°55' E 017°07'0 0.0
2017-Oct-16 01:00N 68°55' E 017°07'0 0.0
2017-Oct-16 00:30N 68°55' E 017°07'0 0.0
2017-Oct-16 00:00N 68°55' E 017°07'0 0.0
2017-Oct-15 23:30N 68°55' E 017°07'0 0.0
2017-Oct-15 23:00N 68°55' E 017°07'0 0.0
2017-Oct-15 22:30N 68°55' E 017°07'0 0.0
2017-Oct-15 22:00N 68°55' E 017°07'0 0.0
2017-Oct-15 21:30N 68°55' E 017°07'0 0.0
2017-Oct-15 21:00N 68°55' E 017°07'0 0.0
2017-Oct-15 20:30N 68°55' E 017°07'0 0.0
2017-Oct-15 20:00N 68°55' E 017°07'0 0.0
2017-Oct-15 19:30N 68°55' E 017°07'0 0.0
2017-Oct-15 19:00N 68°55' E 017°07'0 0.0
2017-Oct-15 18:30N 68°55' E 017°07'0 0.0
2017-Oct-15 18:00N 68°55' E 017°07'0 0.0
2017-Oct-15 17:30N 68°55' E 017°07'0 0.0
2017-Oct-15 16:59N 68°55' E 017°07'0 0.0
2017-Oct-15 16:30N 68°55' E 017°07'0 0.0
2017-Oct-15 16:00N 68°55' E 017°07'0 0.0
2017-Oct-15 15:30N 68°55' E 017°07'0 0.0
2017-Oct-15 15:00N 68°55' E 017°07'0 0.0
2017-Oct-15 13:59N 68°55' E 017°07'0 0.0
2017-Oct-15 13:30N 68°55' E 017°07'0 0.0
2017-Oct-15 12:59N 68°55' E 017°07'0 0.0
2017-Oct-15 12:30N 68°55' E 017°07'0 0.0
2017-Oct-15 12:00N 68°55' E 017°07'0 0.0
2017-Oct-15 11:30N 68°55' E 017°07'0 0.0
2017-Oct-15 11:00N 68°55' E 017°07'0 0.0
2017-Oct-15 10:30N 68°55' E 017°07'0 0.0
2017-Oct-15 10:00N 68°55' E 017°07'0 0.0
2017-Oct-15 09:30N 68°55' E 017°07'0 0.0
2017-Oct-15 09:00N 68°55' E 017°07'0 0.0
2017-Oct-15 08:30N 68°55' E 017°07'0 0.0
2017-Oct-15 08:00N 68°55' E 017°07'0 0.0
2017-Oct-15 07:30N 68°55' E 017°07'0 0.0
2017-Oct-15 07:00N 68°55' E 017°07'0 0.0
2017-Oct-15 06:30N 68°55' E 017°07'0 0.0
2017-Oct-15 06:00N 68°55' E 017°07'0 0.0
2017-Oct-15 05:30N 68°55' E 017°07'0 0.0
2017-Oct-15 05:00N 68°55' E 017°07'0 0.0
2017-Oct-15 04:30N 68°55' E 017°07'0 0.0
2017-Oct-15 04:00N 68°55' E 017°07'0 0.0
2017-Oct-15 03:30N 68°55' E 017°07'0 0.0
2017-Oct-15 03:00N 68°55' E 017°07'0 0.0
2017-Oct-15 02:30N 68°55' E 017°07'0 0.0
2017-Oct-15 02:00N 68°55' E 017°07'0 0.0
2017-Oct-15 01:30N 68°55' E 017°07'0 0.0
2017-Oct-15 01:00N 68°55' E 017°07'0 0.0
2017-Oct-15 00:30N 68°55' E 017°07'0 0.0
2017-Oct-15 00:00N 68°55' E 017°07'0 0.0
2017-Oct-14 23:30N 68°55' E 017°07'0 0.0
2017-Oct-14 23:00N 68°55' E 017°07'0 0.0
2017-Oct-14 22:30N 68°55' E 017°07'0 0.0
2017-Oct-14 22:00N 68°55' E 017°07'0 0.0
2017-Oct-14 21:30N 68°55' E 017°07'0 0.0
2017-Oct-14 21:00N 68°55' E 017°07'0 0.0
2017-Oct-14 20:30N 68°55' E 017°07'0 0.0
2017-Oct-14 20:00N 68°55' E 017°07'0 0.0
2017-Oct-14 19:30N 68°55' E 017°07'0 0.0
2017-Oct-14 19:00N 68°55' E 017°07'0 0.0
2017-Oct-14 18:30N 68°55' E 017°07'0 0.0
2017-Oct-14 18:00N 68°55' E 017°07'0 0.0
2017-Oct-14 17:29N 68°55' E 017°07'0 0.0
2017-Oct-14 17:00N 68°55' E 017°07'0 0.0
2017-Oct-14 16:30N 68°55' E 017°07'0 0.0
2017-Oct-14 16:00N 68°55' E 017°07'0 0.0
2017-Oct-14 15:30N 68°55' E 017°07'0 0.0
2017-Oct-14 15:00N 68°55' E 017°07'0 0.0
2017-Oct-14 14:30N 68°55' E 017°07'0 0.0
2017-Oct-14 14:00N 68°55' E 017°07'0 0.0
2017-Oct-14 13:29N 68°55' E 017°07'0 0.0
2017-Oct-14 13:00N 68°55' E 017°07'0 0.0
2017-Oct-14 12:30N 68°55' E 017°07'0 0.0
2017-Oct-14 12:00N 68°55' E 017°07'0 0.0
2017-Oct-14 11:30N 68°55' E 017°07'0 0.0
2017-Oct-14 11:00N 68°55' E 017°07'0 0.0
2017-Oct-14 10:30N 68°55' E 017°07'0 0.0
2017-Oct-14 09:59N 68°55' E 017°07'0 0.0
2017-Oct-14 09:29N 68°55' E 017°07'0 0.0
2017-Oct-14 09:00N 68°55' E 017°07'0 0.0
2017-Oct-14 08:30N 68°55' E 017°07'0 0.0
2017-Oct-14 08:00N 68°55' E 017°07'0 0.0
2017-Oct-14 07:29N 68°55' E 017°07'0 0.0
2017-Oct-14 07:00N 68°55' E 017°07'0 0.0
2017-Oct-14 06:29N 68°55' E 017°07'0 0.0
2017-Oct-14 06:00N 68°55' E 017°07'0 0.0
2017-Oct-14 05:30N 68°55' E 017°07'0 0.0
2017-Oct-14 05:00N 68°55' E 017°07'0 0.0
2017-Oct-14 04:30N 68°55' E 017°07'0 0.0
2017-Oct-14 04:00N 68°55' E 017°07'0 0.0
2017-Oct-14 03:30N 68°55' E 017°07'0 0.0
2017-Oct-14 03:00N 68°55' E 017°07'0 0.0
2017-Oct-14 02:30N 68°55' E 017°07'0 0.0
2017-Oct-14 02:00N 68°55' E 017°07'0 0.0
2017-Oct-14 01:30N 68°55' E 017°07'0 0.0
2017-Oct-14 01:00N 68°55' E 017°07'0 0.0
2017-Oct-14 00:30N 68°55' E 017°07'0 0.0
2017-Oct-14 00:00N 68°55' E 017°07'0 0.0
2017-Oct-13 23:30N 68°55' E 017°07'0 0.0
2017-Oct-13 23:00N 68°55' E 017°07'0 0.0
2017-Oct-13 22:29N 68°55' E 017°07'0 0.0
2017-Oct-13 22:00N 68°55' E 017°07'0 0.0
2017-Oct-13 21:30N 68°55' E 017°07'0 0.0
2017-Oct-13 21:00N 68°55' E 017°07'0 0.0
2017-Oct-13 20:30N 68°55' E 017°07'0 0.0
2017-Oct-13 20:00N 68°55' E 017°07'0 0.0
2017-Oct-13 19:30N 68°55' E 017°07'0 0.0
2017-Oct-13 19:00N 68°55' E 017°07'0 0.0
2017-Oct-13 18:30N 68°55' E 017°07'0 0.0
2017-Oct-13 18:00N 68°55' E 017°07'0 0.0
2017-Oct-13 17:30N 68°55' E 017°07'0 0.0
2017-Oct-13 17:00N 68°55' E 017°07'0 0.0
2017-Oct-13 16:30N 68°55' E 017°07'0 0.0
2017-Oct-13 16:00N 68°55' E 017°07'0 0.0
2017-Oct-13 15:30N 68°55' E 017°07'0 0.0
2017-Oct-13 14:59N 68°55' E 017°07'0 0.0
2017-Oct-13 14:30N 68°55' E 017°07'2 3.4
2017-Oct-13 13:59N 68°54' E 017°05'3 5.4
2017-Oct-13 13:29N 68°52' E 017°09'5 9.6
2017-Oct-13 13:00N 68°47' E 017°11'1 2.8
2017-Oct-13 12:30N 68°48' E 017°10'510.0
2017-Oct-13 12:00N 68°53' E 017°03'5 9.3
2017-Oct-13 11:30N 68°49' E 016°56'1 2.3
2017-Oct-13 11:00N 68°48' E 016°55'0 0.0
2017-Oct-13 10:30N 68°48' E 016°55'0 0.1
2017-Oct-13 10:00N 68°47' E 016°55'0 0.2
2017-Oct-13 09:30N 68°47' E 016°55'0 0.1
2017-Oct-13 09:00N 68°47' E 016°55'0 0.0
2017-Oct-13 08:30N 68°47' E 016°55'0 0.0
2017-Oct-13 08:00N 68°47' E 016°55'9 0.6
2017-Oct-12 16:24N 68°55' E 017°07'0 0.0
2017-Oct-12 15:59N 68°55' E 017°07'0 0.0
2017-Oct-12 15:30N 68°55' E 017°07'0 0.0
2017-Oct-12 15:00N 68°55' E 017°07'0 0.0
2017-Oct-12 14:30N 68°55' E 017°07'0 0.0
2017-Oct-12 14:00N 68°55' E 017°07'1 1.3
2017-Oct-12 13:30N 68°55' E 017°06'510.1
2017-Oct-12 12:59N 68°51' E 016°58'4 7.4
2017-Oct-12 12:30N 68°47' E 016°55'0 0.2
2017-Oct-12 12:00N 68°47' E 016°55'0 0.2
2017-Oct-12 11:30N 68°47' E 016°55'0 0.3
2017-Oct-12 11:00N 68°47' E 016°55'0 0.1
2017-Oct-12 10:30N 68°47' E 016°55'0 0.0
2017-Oct-12 10:00N 68°47' E 016°55'0 0.0
2017-Oct-12 09:30N 68°47' E 016°55'0 0.1
2017-Oct-12 09:00N 68°47' E 016°55'0 0.1
2017-Oct-12 08:30N 68°47' E 016°55'0 0.3
2017-Oct-12 08:00N 68°47' E 016°55'0 0.1
2017-Oct-12 07:30N 68°48' E 016°55'0 0.0
2017-Oct-12 07:00N 68°48' E 016°55'1 2.0
2017-Oct-12 06:30N 68°49' E 016°55'5 9.2
2017-Oct-12 06:00N 68°53' E 017°01'4 7.3
2017-Oct-12 05:30N 68°55' E 017°07'0 0.0
2017-Oct-12 05:00N 68°55' E 017°07'0 0.0
2017-Oct-12 04:30N 68°55' E 017°07'0 0.0
2017-Oct-12 04:00N 68°55' E 017°07'0 0.0
2017-Oct-12 03:30N 68°55' E 017°07'0 0.0
2017-Oct-12 02:59N 68°55' E 017°07'0 0.0
2017-Oct-12 02:30N 68°55' E 017°07'0 0.0
2017-Oct-12 02:00N 68°55' E 017°07'0 0.0
2017-Oct-12 01:30N 68°55' E 017°07'0 0.0
2017-Oct-12 01:00N 68°55' E 017°07'0 0.0
2017-Oct-12 00:30N 68°55' E 017°07'0 0.0
2017-Oct-12 00:00N 68°55' E 017°07'0 0.0
2017-Oct-11 23:30N 68°55' E 017°07'0 0.0
2017-Oct-11 23:00N 68°55' E 017°07'0 0.0
2017-Oct-11 22:30N 68°55' E 017°07'0 0.0
2017-Oct-11 22:00N 68°55' E 017°07'0 0.0
2017-Oct-11 21:30N 68°55' E 017°07'0 0.0
2017-Oct-11 20:59N 68°55' E 017°07'0 0.0
2017-Oct-11 20:30N 68°55' E 017°07'0 0.0
2017-Oct-11 20:00N 68°55' E 017°07'0 0.0
2017-Oct-11 19:30N 68°55' E 017°07'0 0.0
2017-Oct-11 19:00N 68°55' E 017°07'0 0.0
2017-Oct-11 18:30N 68°55' E 017°07'0 0.0
2017-Oct-11 18:00N 68°55' E 017°07'0 0.0
2017-Oct-11 17:30N 68°55' E 017°07'0 0.0
2017-Oct-11 17:00N 68°55' E 017°07'0 0.0
2017-Oct-11 00:00N 68°55' E 017°07'0 0.0
2017-Oct-10 23:30N 68°55' E 017°07'0 0.0
2017-Oct-10 23:00N 68°55' E 017°07'0 0.0
2017-Oct-10 22:30N 68°55' E 017°07'0 0.0
2017-Oct-10 22:00N 68°55' E 017°07'0 0.0
2017-Oct-10 21:30N 68°55' E 017°07'0 0.0
2017-Oct-10 21:00N 68°55' E 017°07'0 0.0
2017-Oct-10 20:30N 68°55' E 017°07'0 0.0
2017-Oct-10 20:00N 68°55' E 017°07'0 0.0
2017-Oct-10 19:30N 68°55' E 017°07'0 0.0
2017-Oct-10 19:00N 68°55' E 017°07'0 0.0
2017-Oct-10 18:30N 68°55' E 017°07'0 0.0
2017-Oct-10 17:59N 68°55' E 017°07'0 0.0
2017-Oct-10 17:30N 68°55' E 017°07'0 0.0
2017-Oct-10 17:00N 68°55' E 017°07'0 0.0
2017-Oct-10 16:30N 68°55' E 017°07'0 0.0
2017-Oct-10 16:00N 68°55' E 017°07'0 0.0
2017-Oct-10 15:30N 68°55' E 017°07'0 0.0
2017-Oct-10 14:59N 68°55' E 017°07'0 0.0
2017-Oct-10 14:00N 68°55' E 017°07'0 0.0
2017-Oct-10 13:30N 68°55' E 017°07'0 0.0
2017-Oct-10 13:00N 68°55' E 017°07'0 0.0
2017-Oct-10 12:30N 68°55' E 017°07'0 0.0
2017-Oct-10 11:59N 68°55' E 017°07'0 0.0
2017-Oct-10 11:30N 68°55' E 017°07'0 0.0
2017-Oct-10 11:00N 68°55' E 017°07'0 0.0
2017-Oct-10 10:30N 68°55' E 017°07'0 0.0
2017-Oct-10 09:59N 68°55' E 017°07'0 0.0
2017-Oct-10 09:30N 68°55' E 017°07'0 0.0
2017-Oct-10 09:00N 68°55' E 017°07'3 6.4
2017-Oct-10 08:30N 68°58' E 017°01'5 9.8
2017-Oct-10 08:00N 69°00' E 016°50'5 9.3
2017-Oct-10 07:30N 69°04' E 016°43'5 9.9
2017-Oct-10 06:59N 69°10' E 016°44'5 9.9
2017-Oct-10 06:30N 69°14' E 016°51'4 7.6
2017-Oct-10 05:59N 69°15' E 017°02'0 0.0
2017-Oct-10 05:29N 69°15' E 017°02'0 0.0
2017-Oct-10 05:00N 69°15' E 017°02'0 0.0
2017-Oct-10 04:30N 69°15' E 017°02'0 0.0
2017-Oct-10 04:00N 69°15' E 017°02'0 0.0
2017-Oct-10 03:30N 69°15' E 017°02'0 0.0
2017-Oct-10 03:00N 69°15' E 017°02'0 0.0
2017-Oct-10 02:30N 69°15' E 017°02'0 0.1
2017-Oct-10 02:00N 69°15' E 017°01'0 0.0
2017-Oct-10 01:30N 69°15' E 017°01'0 0.0
2017-Oct-10 01:00N 69°15' E 017°01'0 0.0
2017-Oct-10 00:30N 69°15' E 017°01'0 0.0
2017-Oct-10 00:00N 69°15' E 017°01'0 0.0
2017-Oct-09 23:30N 69°15' E 017°01'0 0.0
2017-Oct-09 23:00N 69°15' E 017°01'0 0.2
2017-Oct-09 22:30N 69°15' E 017°02'0 0.0
2017-Oct-09 22:00N 69°15' E 017°02'0 0.0
2017-Oct-09 21:30N 69°15' E 017°02'0 0.0
2017-Oct-09 21:00N 69°15' E 017°02'0 0.0
2017-Oct-09 20:30N 69°15' E 017°02'0 0.0
2017-Oct-09 20:00N 69°15' E 017°02'0 0.0
2017-Oct-09 19:29N 69°15' E 017°02'0 0.0
2017-Oct-09 19:00N 69°15' E 017°02'0 0.0
2017-Oct-09 18:30N 69°15' E 017°02'0 0.0
2017-Oct-09 18:00N 69°15' E 017°02'0 0.0
2017-Oct-09 17:30N 69°15' E 017°02'0 0.0
2017-Oct-09 17:00N 69°15' E 017°02'0 0.0
2017-Oct-09 16:30N 69°15' E 017°02'0 0.0
2017-Oct-09 16:00N 69°15' E 017°02'0 0.0
2017-Oct-09 15:30N 69°15' E 017°02'0 0.0
2017-Oct-09 15:00N 69°15' E 017°02'0 0.0
2017-Oct-09 14:30N 69°15' E 017°02'0 0.0
2017-Oct-09 14:00N 69°15' E 017°02'0 0.0
2017-Oct-09 13:30N 69°15' E 017°02'0 0.1
2017-Oct-09 13:00N 69°15' E 017°02'0 0.0
2017-Oct-09 12:30N 69°15' E 017°02'0 0.0
2017-Oct-09 12:00N 69°15' E 017°02'0 0.0
2017-Oct-09 11:30N 69°15' E 017°02'0 0.0
2017-Oct-09 11:00N 69°15' E 017°02'0 0.0
2017-Oct-09 10:30N 69°15' E 017°02'0 0.0
2017-Oct-09 10:00N 69°15' E 017°02'0 0.0
2017-Oct-09 09:30N 69°15' E 017°02'0 0.0
2017-Oct-09 09:00N 69°15' E 017°02'0 0.0
2017-Oct-09 08:30N 69°15' E 017°02'0 0.2
2017-Oct-09 08:00N 69°15' E 017°01'0 0.0
2017-Oct-09 07:30N 69°15' E 017°01'0 0.0
2017-Oct-09 07:00N 69°15' E 017°01'0 0.0
2017-Oct-09 06:30N 69°15' E 017°01'0 0.0
2017-Oct-09 05:59N 69°15' E 017°01'0 0.0
2017-Oct-09 05:30N 69°15' E 017°01'0 0.0
2017-Oct-09 05:00N 69°15' E 017°01'0 0.0
2017-Oct-09 04:29N 69°15' E 017°01'0 0.0
2017-Oct-09 04:00N 69°15' E 017°01'0 0.0
2017-Oct-09 03:30N 69°15' E 017°01'0 0.1
2017-Oct-09 03:00N 69°15' E 017°01'0 0.0
2017-Oct-09 02:30N 69°15' E 017°01'0 0.0
2017-Oct-09 02:00N 69°15' E 017°01'0 0.0
2017-Oct-09 01:30N 69°15' E 017°01'0 0.0
2017-Oct-09 00:59N 69°15' E 017°01'0 0.0
2017-Oct-09 00:30N 69°15' E 017°01'0 0.0
2017-Oct-09 00:00N 69°15' E 017°01'0 0.0
2017-Oct-08 23:30N 69°15' E 017°01'0 0.0
2017-Oct-08 23:00N 69°15' E 017°01'0 0.0
2017-Oct-08 22:30N 69°15' E 017°01'2 4.5
2017-Oct-08 22:00N 69°15' E 016°55'5 9.2
2017-Oct-08 21:30N 69°11' E 016°46'5 9.9
2017-Oct-08 21:00N 69°06' E 016°44'5 9.4
2017-Oct-08 20:30N 69°02' E 016°46'5 9.2
2017-Oct-08 20:00N 68°59' E 016°55'5 9.6
2017-Oct-08 19:30N 68°56' E 017°07'1 1.7
2017-Oct-08 19:00N 68°55' E 017°07'  
Track history (hours):
 
Tides and Currents Weather Stations Pressure Air Temp Water Temp Dewpoint Dewpoint Depression Visibility Wind Speed Wind Dir Waves Ship Positions

Astoeingen

Last reported at 2017-Oct-18 18:30 UTC. Time now 2017-Oct-18 18:37 UTC.
Position N 68°47' E 016°33'.

Length 14 m.

Type: Other ship. MMSI: 257634800.

Date/timePositionNaut miles runAvg speedWind from/ knotsBaromVisibWave heightAir tempDewpointWater temp
2017-Oct-18 18:30N 68°47' E 016°33'3 5.6
2017-Oct-18 18:00N 68°50' E 016°37'5 9.2
2017-Oct-18 17:30N 68°54' E 016°44'5 9.4
2017-Oct-18 17:00N 68°54' E 016°57'4 8.2
2017-Oct-18 16:30N 68°55' E 017°08'0 0.2
2017-Oct-18 16:00N 68°56' E 017°07'0 0.0
2017-Oct-18 15:30N 68°55' E 017°07'0 0.8
2017-Oct-18 15:00N 68°56' E 017°06'9 9.3
2017-Oct-18 14:00N 68°46' E 017°13'4 8.2
2017-Oct-18 13:30N 68°43' E 017°20'4 6.8
2017-Oct-18 12:59N 68°46' E 017°15'4 7.1
2017-Oct-18 12:30N 68°49' E 017°21'0 0.0
2017-Oct-18 11:59N 68°49' E 017°21'0 0.0
2017-Oct-18 11:30N 68°49' E 017°21'0 0.0
2017-Oct-18 11:00N 68°49' E 017°21'0 0.0
2017-Oct-18 10:30N 68°49' E 017°21'0 0.0
2017-Oct-18 10:00N 68°49' E 017°21'0 0.0
2017-Oct-18 09:30N 68°49' E 017°21'0 0.0
2017-Oct-18 09:00N 68°49' E 017°21'0 0.0
2017-Oct-18 08:30N 68°49' E 017°21'0 0.0
2017-Oct-18 08:00N 68°49' E 017°21'0 0.0
2017-Oct-18 07:30N 68°49' E 017°21'1 2.9
2017-Oct-18 07:00N 68°50' E 017°24'3 6.1
2017-Oct-18 06:30N 68°48' E 017°18'4 7.8
2017-Oct-18 05:59N 68°50' E 017°08'5 9.5
2017-Oct-18 05:30N 68°54' E 017°05'1 2.5
2017-Oct-18 05:00N 68°55' E 017°07'0 0.0
2017-Oct-18 04:30N 68°55' E 017°07'0 0.0
2017-Oct-18 04:00N 68°55' E 017°07'0 0.0
2017-Oct-18 03:30N 68°55' E 017°07'0 0.0
2017-Oct-18 02:59N 68°55' E 017°07'0 0.0
2017-Oct-18 02:30N 68°55' E 017°07'0 0.0
2017-Oct-18 02:00N 68°55' E 017°07'0 0.0
2017-Oct-18 01:30N 68°55' E 017°07'0 0.0
2017-Oct-18 01:00N 68°55' E 017°07'0 0.0
2017-Oct-18 00:30N 68°55' E 017°07'0 0.0
2017-Oct-18 00:00N 68°55' E 017°07'0 0.0
2017-Oct-17 23:30N 68°55' E 017°07'0 0.0
2017-Oct-17 23:00N 68°55' E 017°07'0 0.0
2017-Oct-17 22:30N 68°55' E 017°07'0 0.0
2017-Oct-17 22:00N 68°55' E 017°07'0 0.0
2017-Oct-17 21:30N 68°55' E 017°07'0 0.0
2017-Oct-17 21:00N 68°55' E 017°07'0 0.0
2017-Oct-17 20:30N 68°55' E 017°07'0 0.0
2017-Oct-17 20:00N 68°55' E 017°07'0 0.0
2017-Oct-17 19:30N 68°55' E 017°07'0 0.0
2017-Oct-17 19:00N 68°55' E 017°07'0 0.0
2017-Oct-17 18:30N 68°55' E 017°07'0 0.0
2017-Oct-17 18:00N 68°55' E 017°07'0 0.0
2017-Oct-17 17:30N 68°55' E 017°07'0 0.7
2017-Oct-17 17:00N 68°56' E 017°08'5 9.3
2017-Oct-17 16:30N 68°56' E 017°21'5 9.2
2017-Oct-17 16:00N 68°53' E 017°30'5 9.3
2017-Oct-17 15:30N 68°49' E 017°21'0 0.4
2017-Oct-17 15:00N 68°49' E 017°21'2 3.2
2017-Oct-17 14:30N 68°48' E 017°18'3 2.5
2017-Oct-17 13:30N 68°48' E 017°11'1 2.7
2017-Oct-17 13:00N 68°49' E 017°09'1 2.8
2017-Oct-17 12:29N 68°50' E 017°06'1 2.8
2017-Oct-17 12:00N 68°52' E 017°04'1 2.5
2017-Oct-17 11:30N 68°53' E 017°02'1 2.6
2017-Oct-17 11:00N 68°52' E 016°59'2 3.6
2017-Oct-17 10:30N 68°50' E 016°57'2 3.5
2017-Oct-17 10:00N 68°49' E 016°55'1 2.9
2017-Oct-17 09:30N 68°47' E 016°55'0 0.6
2017-Oct-17 09:00N 68°48' E 016°55'0 0.3
2017-Oct-17 08:30N 68°48' E 016°55'0 0.0
2017-Oct-17 08:00N 68°48' E 016°55'0 0.0
2017-Oct-17 07:30N 68°48' E 016°55'0 0.3
2017-Oct-17 07:00N 68°48' E 016°55'0 0.0
2017-Oct-17 06:30N 68°48' E 016°55'4 7.5
2017-Oct-17 06:00N 68°51' E 016°58'5 9.0
2017-Oct-17 05:30N 68°55' E 017°05'1 2.3
2017-Oct-17 05:00N 68°55' E 017°07'0 0.0
2017-Oct-17 04:30N 68°55' E 017°07'0 0.0
2017-Oct-17 04:00N 68°55' E 017°07'0 0.0
2017-Oct-17 03:30N 68°55' E 017°07'0 0.0
2017-Oct-17 03:00N 68°55' E 017°07'0 0.0
2017-Oct-17 02:30N 68°55' E 017°07'0 0.0
2017-Oct-17 02:00N 68°55' E 017°07'0 0.0
2017-Oct-17 01:30N 68°55' E 017°07'0 0.0
2017-Oct-17 01:00N 68°55' E 017°07'0 0.0
2017-Oct-17 00:30N 68°55' E 017°07'0 0.0
2017-Oct-17 00:00N 68°55' E 017°07'0 0.0
2017-Oct-16 23:30N 68°55' E 017°07'0 0.0
2017-Oct-16 23:00N 68°55' E 017°07'0 0.0
2017-Oct-16 22:30N 68°55' E 017°07'0 0.0
2017-Oct-16 22:00N 68°55' E 017°07'0 0.0
2017-Oct-16 21:30N 68°55' E 017°07'0 0.0
2017-Oct-16 21:00N 68°55' E 017°07'0 0.0
2017-Oct-16 20:29N 68°55' E 017°07'0 0.0
2017-Oct-16 20:00N 68°55' E 017°07'0 0.0
2017-Oct-16 19:30N 68°55' E 017°07'0 0.0
2017-Oct-16 19:00N 68°55' E 017°07'0 0.0
2017-Oct-16 18:30N 68°55' E 017°07'0 0.0
2017-Oct-16 18:00N 68°55' E 017°07'0 0.0
2017-Oct-16 17:30N 68°55' E 017°07'0 0.0
2017-Oct-16 17:00N 68°55' E 017°07'0 0.0
2017-Oct-16 16:30N 68°55' E 017°07'0 0.0
2017-Oct-16 16:00N 68°55' E 017°07'0 0.0
2017-Oct-16 15:30N 68°55' E 017°07'0 0.0
2017-Oct-16 15:00N 68°55' E 017°07'0 0.0
2017-Oct-16 14:00N 68°55' E 017°07'0 0.0
2017-Oct-16 13:30N 68°55' E 017°07'0 0.0
2017-Oct-16 13:00N 68°55' E 017°07'0 0.0
2017-Oct-16 12:30N 68°55' E 017°07'1 1.2
2017-Oct-16 12:00N 68°55' E 017°09'0 0.4
2017-Oct-16 11:30N 68°56' E 017°09'0 0.0
2017-Oct-16 11:00N 68°56' E 017°09'0 0.0
2017-Oct-16 10:30N 68°56' E 017°09'0 0.3
2017-Oct-16 10:00N 68°55' E 017°09'0 0.0
2017-Oct-16 09:30N 68°55' E 017°09'0 0.0
2017-Oct-16 09:00N 68°55' E 017°09'0 0.4
2017-Oct-16 08:30N 68°56' E 017°09'0 0.2
2017-Oct-16 08:00N 68°55' E 017°09'0 0.2
2017-Oct-16 07:30N 68°55' E 017°09'0 0.1
2017-Oct-16 07:00N 68°55' E 017°09'0 0.9
2017-Oct-16 06:30N 68°55' E 017°07'0 0.0
2017-Oct-16 06:00N 68°55' E 017°07'0 0.0
2017-Oct-16 05:30N 68°55' E 017°07'0 0.0
2017-Oct-16 05:00N 68°55' E 017°07'0 0.0
2017-Oct-16 04:30N 68°55' E 017°07'0 0.0
2017-Oct-16 03:59N 68°55' E 017°07'0 0.0
2017-Oct-16 03:30N 68°55' E 017°07'0 0.0
2017-Oct-16 03:00N 68°55' E 017°07'0 0.0
2017-Oct-16 02:30N 68°55' E 017°07'0 0.0
2017-Oct-16 02:00N 68°55' E 017°07'0 0.0
2017-Oct-16 01:30N 68°55' E 017°07'0 0.0
2017-Oct-16 01:00N 68°55' E 017°07'0 0.0
2017-Oct-16 00:30N 68°55' E 017°07'0 0.0
2017-Oct-16 00:00N 68°55' E 017°07'0 0.0
2017-Oct-15 23:30N 68°55' E 017°07'0 0.0
2017-Oct-15 23:00N 68°55' E 017°07'0 0.0
2017-Oct-15 22:30N 68°55' E 017°07'0 0.0
2017-Oct-15 22:00N 68°55' E 017°07'0 0.0
2017-Oct-15 21:30N 68°55' E 017°07'0 0.0
2017-Oct-15 21:00N 68°55' E 017°07'0 0.0
2017-Oct-15 20:30N 68°55' E 017°07'0 0.0
2017-Oct-15 20:00N 68°55' E 017°07'0 0.0
2017-Oct-15 19:30N 68°55' E 017°07'0 0.0
2017-Oct-15 19:00N 68°55' E 017°07'0 0.0
2017-Oct-15 18:30N 68°55' E 017°07'0 0.0
2017-Oct-15 18:00N 68°55' E 017°07'0 0.0
2017-Oct-15 17:30N 68°55' E 017°07'0 0.0
2017-Oct-15 16:59N 68°55' E 017°07'0 0.0
2017-Oct-15 16:30N 68°55' E 017°07'0 0.0
2017-Oct-15 16:00N 68°55' E 017°07'0 0.0
2017-Oct-15 15:30N 68°55' E 017°07'0 0.0
2017-Oct-15 15:00N 68°55' E 017°07'0 0.0
2017-Oct-15 13:59N 68°55' E 017°07'0 0.0
2017-Oct-15 13:30N 68°55' E 017°07'0 0.0
2017-Oct-15 12:59N 68°55' E 017°07'0 0.0
2017-Oct-15 12:30N 68°55' E 017°07'0 0.0
2017-Oct-15 12:00N 68°55' E 017°07'0 0.0
2017-Oct-15 11:30N 68°55' E 017°07'0 0.0
2017-Oct-15 11:00N 68°55' E 017°07'0 0.0
2017-Oct-15 10:30N 68°55' E 017°07'0 0.0
2017-Oct-15 10:00N 68°55' E 017°07'0 0.0
2017-Oct-15 09:30N 68°55' E 017°07'0 0.0
2017-Oct-15 09:00N 68°55' E 017°07'0 0.0
2017-Oct-15 08:30N 68°55' E 017°07'0 0.0
2017-Oct-15 08:00N 68°55' E 017°07'0 0.0
2017-Oct-15 07:30N 68°55' E 017°07'0 0.0
2017-Oct-15 07:00N 68°55' E 017°07'0 0.0
2017-Oct-15 06:30N 68°55' E 017°07'0 0.0
2017-Oct-15 06:00N 68°55' E 017°07'0 0.0
2017-Oct-15 05:30N 68°55' E 017°07'0 0.0
2017-Oct-15 05:00N 68°55' E 017°07'0 0.0
2017-Oct-15 04:30N 68°55' E 017°07'0 0.0
2017-Oct-15 04:00N 68°55' E 017°07'0 0.0
2017-Oct-15 03:30N 68°55' E 017°07'0 0.0
2017-Oct-15 03:00N 68°55' E 017°07'0 0.0
2017-Oct-15 02:30N 68°55' E 017°07'0 0.0
2017-Oct-15 02:00N 68°55' E 017°07'0 0.0
2017-Oct-15 01:30N 68°55' E 017°07'0 0.0
2017-Oct-15 01:00N 68°55' E 017°07'0 0.0
2017-Oct-15 00:30N 68°55' E 017°07'0 0.0
2017-Oct-15 00:00N 68°55' E 017°07'0 0.0
2017-Oct-14 23:30N 68°55' E 017°07'0 0.0
2017-Oct-14 23:00N 68°55' E 017°07'0 0.0
2017-Oct-14 22:30N 68°55' E 017°07'0 0.0
2017-Oct-14 22:00N 68°55' E 017°07'0 0.0
2017-Oct-14 21:30N 68°55' E 017°07'0 0.0
2017-Oct-14 21:00N 68°55' E 017°07'0 0.0
2017-Oct-14 20:30N 68°55' E 017°07'0 0.0
2017-Oct-14 20:00N 68°55' E 017°07'0 0.0
2017-Oct-14 19:30N 68°55' E 017°07'0 0.0
2017-Oct-14 19:00N 68°55' E 017°07'0 0.0
2017-Oct-14 18:30N 68°55' E 017°07'0 0.0
2017-Oct-14 18:00N 68°55' E 017°07'0 0.0
2017-Oct-14 17:29N 68°55' E 017°07'0 0.0
2017-Oct-14 17:00N 68°55' E 017°07'0 0.0
2017-Oct-14 16:30N 68°55' E 017°07'0 0.0
2017-Oct-14 16:00N 68°55' E 017°07'0 0.0
2017-Oct-14 15:30N 68°55' E 017°07'0 0.0
2017-Oct-14 15:00N 68°55' E 017°07'0 0.0
2017-Oct-14 14:30N 68°55' E 017°07'0 0.0
2017-Oct-14 14:00N 68°55' E 017°07'0 0.0
2017-Oct-14 13:29N 68°55' E 017°07'0 0.0
2017-Oct-14 13:00N 68°55' E 017°07'0 0.0
2017-Oct-14 12:30N 68°55' E 017°07'0 0.0
2017-Oct-14 12:00N 68°55' E 017°07'0 0.0
2017-Oct-14 11:30N 68°55' E 017°07'0 0.0
2017-Oct-14 11:00N 68°55' E 017°07'0 0.0
2017-Oct-14 10:30N 68°55' E 017°07'0 0.0
2017-Oct-14 09:59N 68°55' E 017°07'0 0.0
2017-Oct-14 09:29N 68°55' E 017°07'0 0.0
2017-Oct-14 09:00N 68°55' E 017°07'0 0.0
2017-Oct-14 08:30N 68°55' E 017°07'0 0.0
2017-Oct-14 08:00N 68°55' E 017°07'0 0.0
2017-Oct-14 07:29N 68°55' E 017°07'0 0.0
2017-Oct-14 07:00N 68°55' E 017°07'0 0.0
2017-Oct-14 06:29N 68°55' E 017°07'0 0.0
2017-Oct-14 06:00N 68°55' E 017°07'0 0.0
2017-Oct-14 05:30N 68°55' E 017°07'0 0.0
2017-Oct-14 05:00N 68°55' E 017°07'0 0.0
2017-Oct-14 04:30N 68°55' E 017°07'0 0.0
2017-Oct-14 04:00N 68°55' E 017°07'0 0.0
2017-Oct-14 03:30N 68°55' E 017°07'0 0.0
2017-Oct-14 03:00N 68°55' E 017°07'0 0.0
2017-Oct-14 02:30N 68°55' E 017°07'0 0.0
2017-Oct-14 02:00N 68°55' E 017°07'0 0.0
2017-Oct-14 01:30N 68°55' E 017°07'0 0.0
2017-Oct-14 01:00N 68°55' E 017°07'0 0.0
2017-Oct-14 00:30N 68°55' E 017°07'0 0.0
2017-Oct-14 00:00N 68°55' E 017°07'0 0.0
2017-Oct-13 23:30N 68°55' E 017°07'0 0.0
2017-Oct-13 23:00N 68°55' E 017°07'0 0.0
2017-Oct-13 22:29N 68°55' E 017°07'0 0.0
2017-Oct-13 22:00N 68°55' E 017°07'0 0.0
2017-Oct-13 21:30N 68°55' E 017°07'0 0.0
2017-Oct-13 21:00N 68°55' E 017°07'0 0.0
2017-Oct-13 20:30N 68°55' E 017°07'0 0.0
2017-Oct-13 20:00N 68°55' E 017°07'0 0.0
2017-Oct-13 19:30N 68°55' E 017°07'0 0.0
2017-Oct-13 19:00N 68°55' E 017°07'0 0.0
2017-Oct-13 18:30N 68°55' E 017°07'0 0.0
2017-Oct-13 18:00N 68°55' E 017°07'0 0.0
2017-Oct-13 17:30N 68°55' E 017°07'0 0.0
2017-Oct-13 17:00N 68°55' E 017°07'0 0.0
2017-Oct-13 16:30N 68°55' E 017°07'0 0.0
2017-Oct-13 16:00N 68°55' E 017°07'0 0.0
2017-Oct-13 15:30N 68°55' E 017°07'0 0.0
2017-Oct-13 14:59N 68°55' E 017°07'0 0.0
2017-Oct-13 14:30N 68°55' E 017°07'2 3.4
2017-Oct-13 13:59N 68°54' E 017°05'3 5.4
2017-Oct-13 13:29N 68°52' E 017°09'5 9.6
2017-Oct-13 13:00N 68°47' E 017°11'1 2.8
2017-Oct-13 12:30N 68°48' E 017°10'510.0
2017-Oct-13 12:00N 68°53' E 017°03'5 9.3
2017-Oct-13 11:30N 68°49' E 016°56'1 2.3
2017-Oct-13 11:00N 68°48' E 016°55'0 0.0
2017-Oct-13 10:30N 68°48' E 016°55'0 0.1
2017-Oct-13 10:00N 68°47' E 016°55'0 0.2
2017-Oct-13 09:30N 68°47' E 016°55'0 0.1
2017-Oct-13 09:00N 68°47' E 016°55'0 0.0
2017-Oct-13 08:30N 68°47' E 016°55'0 0.0
2017-Oct-13 08:00N 68°47' E 016°55'9 0.6
2017-Oct-12 16:24N 68°55' E 017°07'0 0.0
2017-Oct-12 15:59N 68°55' E 017°07'0 0.0
2017-Oct-12 15:30N 68°55' E 017°07'0 0.0
2017-Oct-12 15:00N 68°55' E 017°07'0 0.0
2017-Oct-12 14:30N 68°55' E 017°07'0 0.0
2017-Oct-12 14:00N 68°55' E 017°07'1 1.3
2017-Oct-12 13:30N 68°55' E 017°06'510.1
2017-Oct-12 12:59N 68°51' E 016°58'4 7.4
2017-Oct-12 12:30N 68°47' E 016°55'0 0.2
2017-Oct-12 12:00N 68°47' E 016°55'0 0.2
2017-Oct-12 11:30N 68°47' E 016°55'0 0.3
2017-Oct-12 11:00N 68°47' E 016°55'0 0.1
2017-Oct-12 10:30N 68°47' E 016°55'0 0.0
2017-Oct-12 10:00N 68°47' E 016°55'0 0.0
2017-Oct-12 09:30N 68°47' E 016°55'0 0.1
2017-Oct-12 09:00N 68°47' E 016°55'0 0.1
2017-Oct-12 08:30N 68°47' E 016°55'0 0.3
2017-Oct-12 08:00N 68°47' E 016°55'0 0.1
2017-Oct-12 07:30N 68°48' E 016°55'0 0.0
2017-Oct-12 07:00N 68°48' E 016°55'1 2.0
2017-Oct-12 06:30N 68°49' E 016°55'5 9.2
2017-Oct-12 06:00N 68°53' E 017°01'4 7.3
2017-Oct-12 05:30N 68°55' E 017°07'0 0.0
2017-Oct-12 05:00N 68°55' E 017°07'0 0.0
2017-Oct-12 04:30N 68°55' E 017°07'0 0.0
2017-Oct-12 04:00N 68°55' E 017°07'0 0.0
2017-Oct-12 03:30N 68°55' E 017°07'0 0.0
2017-Oct-12 02:59N 68°55' E 017°07'0 0.0
2017-Oct-12 02:30N 68°55' E 017°07'0 0.0
2017-Oct-12 02:00N 68°55' E 017°07'0 0.0
2017-Oct-12 01:30N 68°55' E 017°07'0 0.0
2017-Oct-12 01:00N 68°55' E 017°07'0 0.0
2017-Oct-12 00:30N 68°55' E 017°07'0 0.0
2017-Oct-12 00:00N 68°55' E 017°07'0 0.0
2017-Oct-11 23:30N 68°55' E 017°07'0 0.0
2017-Oct-11 23:00N 68°55' E 017°07'0 0.0
2017-Oct-11 22:30N 68°55' E 017°07'0 0.0
2017-Oct-11 22:00N 68°55' E 017°07'0 0.0
2017-Oct-11 21:30N 68°55' E 017°07'0 0.0
2017-Oct-11 20:59N 68°55' E 017°07'0 0.0
2017-Oct-11 20:30N 68°55' E 017°07'0 0.0
2017-Oct-11 20:00N 68°55' E 017°07'0 0.0
2017-Oct-11 19:30N 68°55' E 017°07'0 0.0
2017-Oct-11 19:00N 68°55' E 017°07'0 0.0
2017-Oct-11 18:30N 68°55' E 017°07'0 0.0
2017-Oct-11 18:00N 68°55' E 017°07'0 0.0
2017-Oct-11 17:30N 68°55' E 017°07'0 0.0
2017-Oct-11 17:00N 68°55' E 017°07'0 0.0
2017-Oct-11 00:00N 68°55' E 017°07'0 0.0
2017-Oct-10 23:30N 68°55' E 017°07'0 0.0
2017-Oct-10 23:00N 68°55' E 017°07'0 0.0
2017-Oct-10 22:30N 68°55' E 017°07'0 0.0
2017-Oct-10 22:00N 68°55' E 017°07'0 0.0
2017-Oct-10 21:30N 68°55' E 017°07'0 0.0
2017-Oct-10 21:00N 68°55' E 017°07'0 0.0
2017-Oct-10 20:30N 68°55' E 017°07'0 0.0
2017-Oct-10 20:00N 68°55' E 017°07'0 0.0
2017-Oct-10 19:30N 68°55' E 017°07'0 0.0
2017-Oct-10 19:00N 68°55' E 017°07'0 0.0
2017-Oct-10 18:30N 68°55' E 017°07'0 0.0
2017-Oct-10 17:59N 68°55' E 017°07'0 0.0
2017-Oct-10 17:30N 68°55' E 017°07'0 0.0
2017-Oct-10 17:00N 68°55' E 017°07'0 0.0
2017-Oct-10 16:30N 68°55' E 017°07'0 0.0
2017-Oct-10 16:00N 68°55' E 017°07'0 0.0
2017-Oct-10 15:30N 68°55' E 017°07'0 0.0
2017-Oct-10 14:59N 68°55' E 017°07'0 0.0
2017-Oct-10 14:00N 68°55' E 017°07'0 0.0
2017-Oct-10 13:30N 68°55' E 017°07'0 0.0
2017-Oct-10 13:00N 68°55' E 017°07'0 0.0
2017-Oct-10 12:30N 68°55' E 017°07'0 0.0
2017-Oct-10 11:59N 68°55' E 017°07'0 0.0
2017-Oct-10 11:30N 68°55' E 017°07'0 0.0
2017-Oct-10 11:00N 68°55' E 017°07'0 0.0
2017-Oct-10 10:30N 68°55' E 017°07'0 0.0
2017-Oct-10 09:59N 68°55' E 017°07'0 0.0
2017-Oct-10 09:30N 68°55' E 017°07'0 0.0
2017-Oct-10 09:00N 68°55' E 017°07'3 6.4
2017-Oct-10 08:30N 68°58' E 017°01'5 9.8
2017-Oct-10 08:00N 69°00' E 016°50'5 9.3
2017-Oct-10 07:30N 69°04' E 016°43'5 9.9
2017-Oct-10 06:59N 69°10' E 016°44'5 9.9
2017-Oct-10 06:30N 69°14' E 016°51'4 7.6
2017-Oct-10 05:59N 69°15' E 017°02'0 0.0
2017-Oct-10 05:29N 69°15' E 017°02'0 0.0
2017-Oct-10 05:00N 69°15' E 017°02'0 0.0
2017-Oct-10 04:30N 69°15' E 017°02'0 0.0
2017-Oct-10 04:00N 69°15' E 017°02'0 0.0
2017-Oct-10 03:30N 69°15' E 017°02'0 0.0
2017-Oct-10 03:00N 69°15' E 017°02'0 0.0
2017-Oct-10 02:30N 69°15' E 017°02'0 0.1
2017-Oct-10 02:00N 69°15' E 017°01'0 0.0
2017-Oct-10 01:30N 69°15' E 017°01'0 0.0
2017-Oct-10 01:00N 69°15' E 017°01'0 0.0
2017-Oct-10 00:30N 69°15' E 017°01'0 0.0
2017-Oct-10 00:00N 69°15' E 017°01'0 0.0
2017-Oct-09 23:30N 69°15' E 017°01'0 0.0
2017-Oct-09 23:00N 69°15' E 017°01'0 0.2
2017-Oct-09 22:30N 69°15' E 017°02'0 0.0
2017-Oct-09 22:00N 69°15' E 017°02'0 0.0
2017-Oct-09 21:30N 69°15' E 017°02'0 0.0
2017-Oct-09 21:00N 69°15' E 017°02'0 0.0
2017-Oct-09 20:30N 69°15' E 017°02'0 0.0
2017-Oct-09 20:00N 69°15' E 017°02'0 0.0
2017-Oct-09 19:29N 69°15' E 017°02'0 0.0
2017-Oct-09 19:00N 69°15' E 017°02'0 0.0
2017-Oct-09 18:30N 69°15' E 017°02'0 0.0
2017-Oct-09 18:00N 69°15' E 017°02'0 0.0
2017-Oct-09 17:30N 69°15' E 017°02'0 0.0
2017-Oct-09 17:00N 69°15' E 017°02'0 0.0
2017-Oct-09 16:30N 69°15' E 017°02'0 0.0
2017-Oct-09 16:00N 69°15' E 017°02'0 0.0
2017-Oct-09 15:30N 69°15' E 017°02'0 0.0
2017-Oct-09 15:00N 69°15' E 017°02'0 0.0
2017-Oct-09 14:30N 69°15' E 017°02'0 0.0
2017-Oct-09 14:00N 69°15' E 017°02'0 0.0
2017-Oct-09 13:30N 69°15' E 017°02'0 0.1
2017-Oct-09 13:00N 69°15' E 017°02'0 0.0
2017-Oct-09 12:30N 69°15' E 017°02'0 0.0
2017-Oct-09 12:00N 69°15' E 017°02'0 0.0
2017-Oct-09 11:30N 69°15' E 017°02'0 0.0
2017-Oct-09 11:00N 69°15' E 017°02'0 0.0
2017-Oct-09 10:30N 69°15' E 017°02'0 0.0
2017-Oct-09 10:00N 69°15' E 017°02'0 0.0
2017-Oct-09 09:30N 69°15' E 017°02'0 0.0
2017-Oct-09 09:00N 69°15' E 017°02'0 0.0
2017-Oct-09 08:30N 69°15' E 017°02'0 0.2
2017-Oct-09 08:00N 69°15' E 017°01'0 0.0
2017-Oct-09 07:30N 69°15' E 017°01'0 0.0
2017-Oct-09 07:00N 69°15' E 017°01'0 0.0
2017-Oct-09 06:30N 69°15' E 017°01'0 0.0
2017-Oct-09 05:59N 69°15' E 017°01'0 0.0
2017-Oct-09 05:30N 69°15' E 017°01'0 0.0
2017-Oct-09 05:00N 69°15' E 017°01'0 0.0
2017-Oct-09 04:29N 69°15' E 017°01'0 0.0
2017-Oct-09 04:00N 69°15' E 017°01'0 0.0
2017-Oct-09 03:30N 69°15' E 017°01'0 0.1
2017-Oct-09 03:00N 69°15' E 017°01'0 0.0
2017-Oct-09 02:30N 69°15' E 017°01'0 0.0
2017-Oct-09 02:00N 69°15' E 017°01'0 0.0
2017-Oct-09 01:30N 69°15' E 017°01'0 0.0
2017-Oct-09 00:59N 69°15' E 017°01'0 0.0
2017-Oct-09 00:30N 69°15' E 017°01'0 0.0
2017-Oct-09 00:00N 69°15' E 017°01'0 0.0
2017-Oct-08 23:30N 69°15' E 017°01'0 0.0
2017-Oct-08 23:00N 69°15' E 017°01'0 0.0
2017-Oct-08 22:30N 69°15' E 017°01'2 4.5
2017-Oct-08 22:00N 69°15' E 016°55'5 9.2
2017-Oct-08 21:30N 69°11' E 016°46'5 9.9
2017-Oct-08 21:00N 69°06' E 016°44'5 9.4
2017-Oct-08 20:30N 69°02' E 016°46'5 9.2
2017-Oct-08 20:00N 68°59' E 016°55'5 9.6
2017-Oct-08 19:30N 68°56' E 017°07'1 1.7
2017-Oct-08 19:00N 68°55' E 017°07'  

Dump ship's entire track history